createdAt,value
2018-08-16T00:00:17.041Z,15.40
2018-08-16T00:02:46.270Z,15.40
2018-08-16T00:05:14.948Z,15.40
2018-08-16T00:07:43.494Z,15.40
2018-08-16T00:10:13.628Z,15.40
2018-08-16T00:12:43.376Z,15.30
2018-08-16T00:15:11.950Z,15.30
2018-08-16T00:17:41.170Z,15.30
2018-08-16T00:20:09.903Z,15.30
2018-08-16T00:22:38.420Z,15.40
2018-08-16T00:25:07.787Z,15.40
2018-08-16T00:27:36.345Z,15.40
2018-08-16T00:30:07.137Z,15.40
2018-08-16T00:32:35.748Z,15.50
2018-08-16T00:35:04.888Z,15.50
2018-08-16T00:37:33.441Z,15.50
2018-08-16T00:40:02.035Z,15.60
2018-08-16T00:42:33.850Z,15.70
2018-08-16T00:45:03.166Z,15.80
2018-08-16T00:47:32.522Z,15.90
2018-08-16T00:50:01.151Z,15.90
2018-08-16T00:52:29.691Z,16.10
2018-08-16T00:54:58.226Z,16.10
2018-08-16T00:57:26.771Z,16.20
2018-08-16T00:59:55.484Z,16.20
2018-08-16T01:02:24.040Z,16.30
2018-08-16T01:04:52.564Z,16.30
2018-08-16T01:07:21.237Z,16.30
2018-08-16T01:09:49.804Z,16.40
2018-08-16T01:12:18.623Z,16.40
2018-08-16T01:14:47.086Z,16.50
2018-08-16T01:17:15.631Z,16.50
2018-08-16T01:19:44.193Z,16.50
2018-08-16T01:22:12.727Z,16.50
2018-08-16T01:24:41.269Z,16.40
2018-08-16T01:27:09.749Z,16.30
2018-08-16T01:29:38.258Z,16.20
2018-08-16T01:32:06.766Z,16.10
2018-08-16T01:34:35.306Z,16.00
2018-08-16T01:37:03.900Z,15.90
2018-08-16T01:39:32.398Z,15.80
2018-08-16T01:42:00.970Z,15.70
2018-08-16T01:44:29.496Z,15.60
2018-08-16T01:46:57.962Z,15.60
2018-08-16T01:49:38.494Z,15.50
2018-08-16T01:52:07.177Z,15.50
2018-08-16T01:54:35.669Z,15.40
2018-08-16T01:57:04.417Z,15.40
2018-08-16T01:59:32.907Z,15.40
2018-08-16T02:02:01.423Z,15.50
2018-08-16T02:04:29.873Z,15.50
2018-08-16T02:06:58.431Z,15.60
2018-08-16T02:09:26.939Z,15.60
2018-08-16T02:11:55.431Z,15.60
2018-08-16T02:14:23.906Z,15.70
2018-08-16T02:16:52.409Z,15.80
2018-08-16T02:19:21.042Z,15.80
2018-08-16T02:21:49.588Z,15.90
2018-08-16T02:24:18.095Z,15.90
2018-08-16T02:26:46.585Z,15.90
2018-08-16T02:29:15.088Z,15.90
2018-08-16T02:31:43.565Z,15.80
2018-08-16T02:34:12.089Z,15.80
2018-08-16T02:36:40.647Z,15.70
2018-08-16T02:39:09.878Z,15.60
2018-08-16T02:41:39.052Z,15.60
2018-08-16T02:44:08.068Z,15.50
2018-08-16T02:46:36.585Z,15.40
2018-08-16T02:49:05.088Z,15.30
2018-08-16T02:51:33.658Z,15.30
2018-08-16T02:54:02.196Z,15.30
2018-08-16T02:56:30.770Z,15.20
2018-08-16T02:58:59.416Z,15.10
2018-08-16T03:01:27.868Z,15.10
2018-08-16T03:03:56.365Z,15.00
2018-08-16T03:06:24.881Z,15.00
2018-08-16T03:08:53.540Z,14.90
2018-08-16T03:11:22.053Z,14.90
2018-08-16T03:13:50.531Z,14.80
2018-08-16T03:16:19.029Z,14.80
2018-08-16T03:18:47.466Z,14.80
2018-08-16T03:21:15.985Z,15.00
2018-08-16T03:23:44.497Z,15.10
2018-08-16T03:26:12.976Z,15.20
2018-08-16T03:28:41.463Z,15.30
2018-08-16T03:31:09.999Z,15.40
2018-08-16T03:33:38.541Z,15.40
2018-08-16T03:36:07.064Z,15.50
2018-08-16T03:38:35.965Z,15.50
2018-08-16T03:41:04.660Z,15.60
2018-08-16T03:43:33.205Z,15.50
2018-08-16T03:46:01.857Z,15.50
2018-08-16T03:48:30.350Z,15.50
2018-08-16T03:50:58.844Z,15.40
2018-08-16T03:53:27.355Z,15.30
2018-08-16T03:55:56.054Z,15.20
2018-08-16T03:58:24.504Z,15.10
2018-08-16T04:00:53.134Z,15.10
2018-08-16T04:03:21.634Z,15.00
2018-08-16T04:05:50.113Z,15.00
2018-08-16T04:08:18.638Z,14.90
2018-08-16T04:10:47.112Z,14.80
2018-08-16T04:13:15.596Z,14.80
2018-08-16T04:15:44.033Z,14.80
2018-08-16T04:18:12.534Z,14.70
2018-08-16T04:20:41.017Z,14.70
2018-08-16T04:23:09.512Z,14.70
2018-08-16T04:25:38.030Z,14.70
2018-08-16T04:28:06.548Z,14.60
2018-08-16T04:30:35.065Z,14.60
2018-08-16T04:33:03.672Z,14.60
2018-08-16T04:35:32.150Z,14.70
2018-08-16T04:38:00.647Z,14.70
2018-08-16T04:40:29.164Z,14.60
2018-08-16T04:42:57.872Z,14.60
2018-08-16T04:45:26.382Z,14.60
2018-08-16T04:47:54.928Z,14.60
2018-08-16T04:50:23.445Z,14.70
2018-08-16T04:52:51.998Z,14.70
2018-08-16T04:55:20.577Z,14.70
2018-08-16T04:57:49.061Z,14.70
2018-08-16T05:00:17.585Z,14.70
2018-08-16T05:02:46.077Z,14.80
2018-08-16T05:05:14.545Z,14.80
2018-08-16T05:07:43.027Z,14.80
2018-08-16T05:10:11.758Z,14.80
2018-08-16T05:12:40.251Z,14.90
2018-08-16T05:15:11.264Z,15.00
2018-08-16T05:17:39.782Z,15.00
2018-08-16T05:20:10.663Z,15.10
2018-08-16T05:22:39.126Z,15.10
2018-08-16T05:25:07.756Z,15.20
2018-08-16T05:27:36.224Z,15.20
2018-08-16T05:30:07.077Z,15.30
2018-08-16T05:32:35.566Z,15.40
2018-08-16T05:35:04.709Z,15.40
2018-08-16T05:37:33.232Z,15.50
2018-08-16T05:40:01.728Z,15.60
2018-08-16T05:42:30.337Z,15.60
2018-08-16T05:44:58.819Z,15.70
2018-08-16T05:47:27.336Z,15.70
2018-08-16T05:50:02.482Z,15.80
2018-08-16T05:52:31.310Z,15.90
2018-08-16T05:54:59.810Z,15.90
2018-08-16T05:57:28.289Z,16.00
2018-08-16T05:59:56.797Z,16.10
2018-08-16T06:02:25.572Z,16.20
2018-08-16T06:04:54.338Z,16.30
2018-08-16T06:07:22.898Z,16.30
2018-08-16T06:09:51.451Z,16.40
2018-08-16T06:12:19.944Z,16.50
2018-08-16T06:14:48.572Z,16.50
2018-08-16T06:17:17.106Z,16.60
2018-08-16T06:19:45.593Z,16.70
2018-08-16T06:22:14.094Z,16.70
2018-08-16T06:24:42.608Z,16.80
2018-08-16T06:27:11.138Z,16.90
2018-08-16T06:29:39.685Z,17.00
2018-08-16T06:32:08.177Z,17.00
2018-08-16T06:34:36.655Z,17.10
2018-08-16T06:37:05.503Z,17.20
2018-08-16T06:39:34.028Z,17.20
2018-08-16T06:42:02.697Z,17.30
2018-08-16T06:44:31.262Z,17.40
2018-08-16T06:46:59.760Z,17.50
2018-08-16T06:49:28.488Z,17.60
2018-08-16T06:51:57.253Z,17.60
2018-08-16T06:54:26.100Z,17.70
2018-08-16T06:56:54.570Z,17.80
2018-08-16T06:59:23.357Z,17.90
2018-08-16T07:01:51.810Z,18.00
2018-08-16T07:04:20.372Z,18.00
2018-08-16T07:06:49.087Z,18.10
2018-08-16T07:09:17.577Z,18.20
2018-08-16T07:11:46.066Z,18.30
2018-08-16T07:14:14.576Z,18.30
2018-08-16T07:16:43.070Z,18.40
2018-08-16T07:19:11.600Z,18.40
2018-08-16T07:21:40.080Z,18.50
2018-08-16T07:24:08.684Z,18.60
2018-08-16T07:26:37.167Z,18.70
2018-08-16T07:29:05.948Z,18.80
2018-08-16T07:31:34.723Z,18.90
2018-08-16T07:34:03.252Z,19.00
2018-08-16T07:36:31.788Z,19.20
2018-08-16T07:39:00.307Z,19.30
2018-08-16T07:41:28.799Z,19.40
2018-08-16T07:43:57.304Z,19.50
2018-08-16T07:46:25.870Z,19.50
2018-08-16T07:48:54.356Z,19.60
2018-08-16T07:51:22.992Z,19.60
2018-08-16T07:53:51.403Z,19.70
2018-08-16T07:56:19.900Z,19.70
2018-08-16T07:58:48.474Z,19.80
2018-08-16T08:01:16.978Z,19.80
2018-08-16T08:03:45.509Z,19.90
2018-08-16T08:06:14.086Z,19.90
2018-08-16T08:08:42.634Z,20.00
2018-08-16T08:11:11.253Z,20.10
2018-08-16T08:13:39.825Z,20.20
2018-08-16T08:16:08.368Z,20.30
2018-08-16T08:18:36.988Z,20.30
2018-08-16T08:21:05.525Z,20.30
2018-08-16T08:23:34.060Z,20.40
2018-08-16T08:26:02.773Z,20.40
2018-08-16T08:28:31.261Z,20.60
2018-08-16T08:30:59.792Z,20.60
2018-08-16T08:33:28.620Z,20.70
2018-08-16T08:36:08.481Z,20.90
2018-08-16T08:38:37.008Z,21.00
2018-08-16T08:41:05.504Z,21.00
2018-08-16T08:43:45.162Z,21.00
2018-08-16T08:46:13.688Z,21.10
2018-08-16T08:48:42.278Z,21.10
2018-08-16T08:51:10.822Z,21.20
2018-08-16T08:55:01.830Z,21.30
2018-08-16T08:57:41.475Z,21.30
2018-08-16T09:00:10.007Z,21.40
2018-08-16T09:02:38.736Z,21.60
2018-08-16T09:05:07.690Z,21.60
2018-08-16T09:07:36.258Z,21.70
2018-08-16T09:11:15.212Z,21.80
2018-08-16T09:13:56.122Z,21.90
2018-08-16T09:16:27.700Z,21.80
2018-08-16T09:18:56.611Z,21.60
2018-08-16T09:21:25.260Z,21.50
2018-08-16T09:23:53.807Z,21.40
2018-08-16T09:26:27.944Z,21.40
2018-08-16T09:28:56.498Z,21.50
2018-08-16T09:31:36.345Z,21.80
2018-08-16T09:34:23.888Z,22.00
2018-08-16T09:36:52.606Z,22.20
2018-08-16T09:39:21.270Z,22.30
2018-08-16T09:41:49.675Z,22.50
2018-08-16T09:44:18.329Z,22.70
2018-08-16T09:47:13.267Z,22.80
2018-08-16T09:49:44.838Z,22.80
2018-08-16T09:52:14.068Z,22.70
2018-08-16T09:54:42.610Z,22.60
2018-08-16T09:57:12.044Z,22.60
2018-08-16T09:59:40.564Z,22.80
2018-08-16T10:02:11.728Z,22.90
2018-08-16T10:04:40.188Z,23.00
2018-08-16T10:07:08.753Z,23.10
2018-08-16T10:09:37.423Z,23.00
2018-08-16T10:12:05.974Z,23.00
2018-08-16T10:14:34.524Z,23.10
2018-08-16T10:17:03.029Z,23.30
2018-08-16T10:19:31.546Z,23.50
2018-08-16T10:22:00.000Z,23.70
2018-08-16T10:24:28.604Z,24.00
2018-08-16T10:26:57.176Z,24.10
2018-08-16T10:29:26.577Z,24.00
2018-08-16T10:31:55.180Z,24.10
2018-08-16T10:34:23.644Z,24.30
2018-08-16T10:36:52.174Z,24.40
2018-08-16T10:39:20.676Z,24.50
2018-08-16T10:41:55.565Z,24.40
2018-08-16T10:44:27.320Z,24.10
2018-08-16T10:46:55.994Z,23.90
2018-08-16T10:49:24.508Z,23.70
2018-08-16T10:51:54.036Z,23.60
2018-08-16T10:54:22.524Z,23.70
2018-08-16T10:56:51.031Z,23.90
2018-08-16T10:59:19.520Z,24.00
2018-08-16T11:01:48.055Z,24.20
2018-08-16T11:04:16.686Z,24.30
2018-08-16T11:06:45.357Z,24.50
2018-08-16T11:09:13.878Z,24.60
2018-08-16T11:11:42.421Z,24.60
2018-08-16T11:14:10.913Z,24.50
2018-08-16T11:16:39.464Z,24.40
2018-08-16T11:19:08.013Z,24.20
2018-08-16T11:21:36.559Z,24.20
2018-08-16T11:24:05.036Z,24.30
2018-08-16T11:26:33.538Z,24.40
2018-08-16T11:29:02.012Z,24.80
2018-08-16T11:31:30.516Z,24.90
2018-08-16T11:33:58.959Z,25.10
2018-08-16T11:36:27.508Z,25.20
2018-08-16T11:38:56.032Z,25.20
2018-08-16T11:41:24.502Z,25.00
2018-08-16T11:43:52.991Z,25.20
2018-08-16T11:46:21.495Z,25.30
2018-08-16T11:48:49.991Z,25.10
2018-08-16T11:51:18.528Z,25.00
2018-08-16T11:53:47.055Z,25.00
2018-08-16T11:56:15.546Z,24.90
2018-08-16T11:58:44.339Z,24.90
2018-08-16T12:01:12.797Z,24.80
2018-08-16T12:03:41.281Z,24.80
2018-08-16T12:06:09.794Z,24.90
2018-08-16T12:08:38.451Z,25.00
2018-08-16T12:11:07.205Z,25.00
2018-08-16T12:13:35.685Z,25.00
2018-08-16T12:16:04.235Z,25.00
2018-08-16T12:18:32.800Z,25.30
2018-08-16T12:21:01.335Z,25.40
2018-08-16T12:23:30.104Z,25.40
2018-08-16T12:25:58.627Z,25.40
2018-08-16T12:28:27.124Z,25.30
2018-08-16T12:30:55.564Z,25.50
2018-08-16T12:33:24.075Z,25.80
2018-08-16T12:35:52.589Z,25.80
2018-08-16T12:38:21.070Z,25.60
2018-08-16T12:40:50.199Z,25.60
2018-08-16T12:43:18.141Z,25.80
2018-08-16T12:45:46.892Z,26.00
2018-08-16T12:48:15.409Z,26.30
2018-08-16T12:50:43.905Z,26.50
2018-08-16T12:53:12.433Z,26.40
2018-08-16T12:55:40.906Z,26.30
2018-08-16T12:58:09.431Z,26.10
2018-08-16T13:00:37.916Z,26.00
2018-08-16T13:03:06.533Z,26.10
2018-08-16T13:05:35.043Z,26.40
2018-08-16T13:08:03.571Z,26.60
2018-08-16T13:10:32.104Z,26.30
2018-08-16T13:13:00.558Z,26.30
2018-08-16T13:15:29.076Z,26.30
2018-08-16T13:17:57.556Z,26.30
2018-08-16T13:20:26.072Z,26.40
2018-08-16T13:22:54.581Z,26.40
2018-08-16T13:25:23.095Z,26.50
2018-08-16T13:27:51.674Z,26.50
2018-08-16T13:30:20.209Z,26.40
2018-08-16T13:32:48.644Z,26.30
2018-08-16T13:35:17.158Z,26.30
2018-08-16T13:37:45.600Z,26.60
2018-08-16T13:40:14.157Z,26.70
2018-08-16T13:42:42.907Z,26.90
2018-08-16T13:45:11.453Z,27.20
2018-08-16T13:47:39.948Z,27.40
2018-08-16T13:50:08.466Z,27.60
2018-08-16T13:52:37.064Z,27.70
2018-08-16T13:55:05.665Z,27.30
2018-08-16T13:57:34.124Z,27.00
2018-08-16T14:00:02.630Z,26.90
2018-08-16T14:02:31.169Z,27.00
2018-08-16T14:04:59.606Z,26.80
2018-08-16T14:07:28.116Z,26.40
2018-08-16T14:09:56.593Z,26.40
2018-08-16T14:12:25.112Z,26.80
2018-08-16T14:14:53.590Z,27.30
2018-08-16T14:17:22.224Z,27.50
2018-08-16T14:19:50.798Z,27.50
2018-08-16T14:22:19.386Z,27.20
2018-08-16T14:24:47.864Z,26.90
2018-08-16T14:27:16.438Z,26.70
2018-08-16T14:29:44.888Z,26.50
2018-08-16T14:32:13.432Z,26.30
2018-08-16T14:34:41.900Z,26.30
2018-08-16T14:37:10.466Z,26.30
2018-08-16T14:39:39.040Z,26.60
2018-08-16T14:42:07.674Z,27.20
2018-08-16T14:44:36.122Z,27.30
2018-08-16T14:47:04.729Z,26.90
2018-08-16T14:49:33.299Z,26.40
2018-08-16T14:52:01.823Z,26.10
2018-08-16T14:54:30.313Z,25.90
2018-08-16T14:56:58.798Z,25.90
2018-08-16T14:59:27.293Z,26.20
2018-08-16T15:01:55.844Z,26.50
2018-08-16T15:04:24.340Z,26.60
2018-08-16T15:06:52.904Z,26.70
2018-08-16T15:09:21.502Z,26.50
2018-08-16T15:11:49.987Z,26.20
2018-08-16T15:14:18.470Z,25.90
2018-08-16T15:16:46.969Z,25.70
2018-08-16T15:19:15.468Z,25.50
2018-08-16T15:21:43.949Z,25.40
2018-08-16T15:24:14.143Z,25.30
2018-08-16T15:26:42.661Z,25.30
2018-08-16T15:29:11.168Z,25.20
2018-08-16T15:31:39.695Z,25.10
2018-08-16T15:34:08.720Z,25.00
2018-08-16T15:36:37.240Z,24.90
2018-08-16T15:39:07.384Z,24.80
2018-08-16T15:41:35.932Z,24.80
2018-08-16T15:44:04.518Z,24.90
2018-08-16T15:46:33.016Z,25.00
2018-08-16T15:49:01.516Z,25.00
2018-08-16T15:51:30.064Z,25.00
2018-08-16T15:53:58.569Z,25.20
2018-08-16T15:56:27.150Z,25.40
2018-08-16T15:58:55.652Z,25.30
2018-08-16T16:01:24.184Z,25.10
2018-08-16T16:03:52.738Z,25.00
2018-08-16T16:06:21.268Z,24.90
2018-08-16T16:08:49.805Z,24.80
2018-08-16T16:11:18.325Z,24.80
2018-08-16T16:13:46.953Z,24.60
2018-08-16T16:16:15.428Z,24.50
2018-08-16T16:18:43.920Z,24.40
2018-08-16T16:21:12.438Z,24.30
2018-08-16T16:23:40.876Z,24.20
2018-08-16T16:26:09.373Z,24.20
2018-08-16T16:28:37.847Z,24.30
2018-08-16T16:31:06.345Z,24.20
2018-08-16T16:33:34.868Z,24.10
2018-08-16T16:36:03.406Z,23.80
2018-08-16T16:38:31.878Z,23.80
2018-08-16T16:41:00.393Z,23.80
2018-08-16T16:43:28.907Z,23.80
2018-08-16T16:45:57.522Z,23.80
2018-08-16T16:48:29.310Z,23.60
2018-08-16T16:50:57.869Z,23.40
2018-08-16T16:53:26.412Z,23.30
2018-08-16T16:55:54.901Z,23.20
2018-08-16T16:58:23.432Z,23.00
2018-08-16T17:00:51.939Z,22.90
2018-08-16T17:03:20.481Z,22.90
2018-08-16T17:05:49.025Z,22.90
2018-08-16T17:08:17.591Z,22.80
2018-08-16T17:10:46.128Z,22.80
2018-08-16T17:13:14.673Z,22.70
2018-08-16T17:15:43.202Z,22.70
2018-08-16T17:18:11.839Z,22.70
2018-08-16T17:20:40.409Z,22.70
2018-08-16T17:23:08.960Z,22.70
2018-08-16T17:25:37.528Z,22.70
2018-08-16T17:28:06.294Z,22.80
2018-08-16T17:30:34.840Z,23.10
2018-08-16T17:33:03.337Z,23.20
2018-08-16T17:35:31.872Z,23.50
2018-08-16T17:38:00.440Z,23.90
2018-08-16T17:40:29.017Z,24.00
2018-08-16T17:42:57.573Z,24.20
2018-08-16T17:45:26.096Z,24.10
2018-08-16T17:47:54.760Z,24.20
2018-08-16T17:50:23.283Z,24.20
2018-08-16T17:52:51.792Z,24.20
2018-08-16T17:55:20.336Z,24.30
2018-08-16T17:57:48.833Z,24.20
2018-08-16T18:00:17.395Z,24.10
2018-08-16T18:02:45.923Z,23.80
2018-08-16T18:05:14.478Z,23.60
2018-08-16T18:07:42.973Z,23.50
2018-08-16T18:10:11.600Z,23.20
2018-08-16T18:12:40.124Z,22.90
2018-08-16T18:15:10.572Z,22.80
2018-08-16T18:17:39.930Z,22.50
2018-08-16T18:20:08.661Z,22.20
2018-08-16T18:22:38.090Z,21.90
2018-08-16T18:25:07.155Z,21.60
2018-08-16T18:27:35.690Z,21.30
2018-08-16T18:30:04.703Z,21.10
2018-08-16T18:32:33.223Z,20.90
2018-08-16T18:35:01.717Z,20.70
2018-08-16T18:37:30.254Z,20.60
2018-08-16T18:39:58.793Z,20.40
2018-08-16T18:42:27.333Z,20.30
2018-08-16T18:44:55.887Z,20.20
2018-08-16T18:47:24.472Z,20.10
2018-08-16T18:49:52.960Z,20.00
2018-08-16T18:52:21.491Z,19.90
2018-08-16T18:54:50.020Z,19.80
2018-08-16T18:57:18.604Z,19.70
2018-08-16T18:59:47.117Z,19.60
2018-08-16T19:02:15.678Z,19.60
2018-08-16T19:04:44.229Z,19.50
2018-08-16T19:07:12.727Z,19.50
2018-08-16T19:09:41.301Z,19.40
2018-08-16T19:12:09.871Z,19.10
2018-08-16T19:14:38.378Z,18.90
2018-08-16T19:17:07.028Z,18.70
2018-08-16T19:19:35.563Z,18.50
2018-08-16T19:22:04.216Z,18.30
2018-08-16T19:24:32.740Z,18.20
2018-08-16T19:27:01.293Z,18.10
2018-08-16T19:29:29.845Z,18.00
2018-08-16T19:31:58.337Z,17.80
2018-08-16T19:34:26.876Z,17.80
2018-08-16T19:36:55.431Z,17.70
2018-08-16T19:39:23.927Z,17.60
2018-08-16T19:41:52.472Z,17.50
2018-08-16T19:44:20.956Z,17.40
2018-08-16T19:46:49.540Z,17.40
2018-08-16T19:49:18.051Z,17.30
2018-08-16T19:51:46.548Z,17.30
2018-08-16T19:54:15.068Z,17.30
2018-08-16T19:56:43.621Z,17.20
2018-08-16T19:59:12.112Z,17.10
2018-08-16T20:01:40.752Z,17.10
2018-08-16T20:04:09.271Z,17.00
2018-08-16T20:06:37.760Z,16.90
2018-08-16T20:09:08.449Z,16.90
2018-08-16T20:11:37.076Z,16.80
2018-08-16T20:14:05.655Z,16.70
2018-08-16T20:16:34.572Z,16.70
2018-08-16T20:19:03.193Z,16.60
2018-08-16T20:21:31.679Z,16.60
2018-08-16T20:24:00.231Z,16.50
2018-08-16T20:26:28.709Z,16.50
2018-08-16T20:28:57.249Z,16.50
2018-08-16T20:31:25.765Z,16.40
2018-08-16T20:33:54.297Z,16.40
2018-08-16T20:36:22.834Z,16.30
2018-08-16T20:38:51.408Z,16.30
2018-08-16T20:41:19.894Z,16.20
2018-08-16T20:43:48.536Z,16.20
2018-08-16T20:46:17.121Z,16.10
2018-08-16T20:48:45.656Z,16.00
2018-08-16T20:51:14.168Z,16.00
2018-08-16T20:53:42.684Z,15.90
2018-08-16T20:56:11.185Z,15.90
2018-08-16T20:58:39.715Z,15.90
2018-08-16T21:01:08.314Z,15.80
2018-08-16T21:03:36.765Z,15.80
2018-08-16T21:06:06.815Z,15.80
2018-08-16T21:08:35.395Z,15.80
2018-08-16T21:11:03.968Z,15.70
2018-08-16T21:13:32.653Z,15.70
2018-08-16T21:16:01.307Z,15.80
2018-08-16T21:18:29.818Z,15.70
2018-08-16T21:20:58.366Z,15.70
2018-08-16T21:23:26.890Z,15.60
2018-08-16T21:25:55.376Z,15.50
2018-08-16T21:28:23.876Z,15.50
2018-08-16T21:30:52.360Z,15.40
2018-08-16T21:33:20.886Z,15.40
2018-08-16T21:35:49.364Z,15.40
2018-08-16T21:38:17.941Z,15.40
2018-08-16T21:40:46.403Z,15.40
2018-08-16T21:43:14.936Z,15.30
2018-08-16T21:45:43.412Z,15.30
2018-08-16T21:48:11.981Z,15.40
2018-08-16T21:50:40.505Z,15.40
2018-08-16T21:53:08.994Z,15.30
2018-08-16T21:55:37.531Z,15.30
2018-08-16T21:58:06.179Z,15.30
2018-08-16T22:00:48.495Z,15.30
2018-08-16T22:03:19.325Z,15.30
2018-08-16T22:05:55.211Z,15.30
2018-08-16T22:08:24.116Z,15.20
2018-08-16T22:10:52.668Z,15.20
2018-08-16T22:13:21.148Z,15.10
2018-08-16T22:15:49.706Z,15.10
2018-08-16T22:18:18.222Z,15.00
2018-08-16T22:20:46.782Z,15.00
2018-08-16T22:23:15.263Z,14.90
2018-08-16T22:25:43.783Z,14.90
2018-08-16T22:28:12.340Z,14.80
2018-08-16T22:30:40.882Z,14.80
2018-08-16T22:33:09.628Z,14.80
2018-08-16T22:35:38.182Z,14.80
2018-08-16T22:38:06.703Z,14.80
2018-08-16T22:40:35.285Z,14.80
2018-08-16T22:43:03.856Z,14.80
2018-08-16T22:45:32.436Z,14.80
2018-08-16T22:48:00.956Z,14.70
2018-08-16T22:50:29.521Z,14.70
2018-08-16T22:52:58.067Z,14.70
2018-08-16T22:55:26.586Z,14.70
2018-08-16T22:57:55.087Z,14.70
2018-08-16T23:00:23.660Z,14.70
2018-08-16T23:02:52.342Z,14.60
2018-08-16T23:05:20.896Z,14.60
2018-08-16T23:07:49.432Z,14.60
2018-08-16T23:10:18.000Z,14.60
2018-08-16T23:12:46.577Z,14.60
2018-08-16T23:15:15.088Z,14.60
2018-08-16T23:17:43.627Z,14.60
2018-08-16T23:20:12.148Z,14.50
2018-08-16T23:22:41.220Z,14.50
2018-08-16T23:25:09.908Z,14.40
2018-08-16T23:27:38.467Z,14.40
2018-08-16T23:30:09.860Z,14.50
2018-08-16T23:32:38.607Z,14.50
2018-08-16T23:35:07.396Z,14.50
2018-08-16T23:37:36.128Z,14.50
2018-08-16T23:40:06.071Z,14.50
2018-08-16T23:42:34.605Z,14.50
2018-08-16T23:45:03.190Z,14.50
2018-08-16T23:47:31.699Z,14.50
2018-08-16T23:50:00.263Z,14.50
2018-08-16T23:52:28.847Z,14.50
2018-08-16T23:54:57.363Z,14.50
2018-08-16T23:57:25.937Z,14.50
2018-08-16T23:59:54.486Z,14.40
